Kezdőlap
METAR-TAF:

METAR-TAF

Repülőterek :

Shepherd Bay, Nunavut, Kanada

földrajzi szélesség: 68-49N, földrajzi hosszúság: 093-26W, magasság: 51 m

Jelenlegi meteorológiai megfigyelések

A jelentés 54 perccel ezelõtt készült, 23:23 UTC
Dél-délkeleti szél 6 kt
Hőmérséklet -37°C
Páratartalom 59%
Légköri nyomás 1004 hPa
Szakadozott felhőzet 300 lábon
Borult 1600 lábon

METAR: CYUS 152323Z AUTO 16006KT ////SM //// BKN003 OVC016 M37/M42 A2964

Idő: 17:17 (00:17 UTC)


TAF: hiányzik

Meteorológiai megfigyelések és előrejelzések több, mint 4000 repülőtéren (METAR és TAF jelentéseket).

A térképen piros és sárga pontok jelzik az elérhető meteorológiai állomásokat.

Mozgassa az egeret a pont fölött, hogy megjelenjen az állomás neve.

Azután kattintson az időjárási megfigyelések és előrejelzések megtekintéséhez.

A térkép megváltoztatása: kattintson a fekete keresztel jelölt zöld gombra ráközelítéshez, a vonallal jelölt zöld gombra távolításhoz, vagy a zöld nyilakra a szomszédos térképek eléréséhez.


METAR-TAF: